Time;durP1;ratioP1;P1;durP2;ratioP2;P2;SDS_P1;SDS_P2;PMS_P1;PMS_P2;Temp;Humidity;BMP_temperature;BMP_pressure;BME280_temperature;BME280_humidity;BME280_pressure;Samples;Min_cycle;Max_cycle;Signal;HPM_P1;HPM_P2
2023/11/18 00:00:11;;;;;;;9.55;2.30;;;;;;;-2.50;56.06;100456.31;6262741;22;19947;-88
2023/11/18 00:06:28;;;;;;;6.80;3.05;;;;;;;-2.56;55.83;100448.25;6289294;22;20043;-90
2023/11/18 00:09:20;;;;;;;10.13;3.60;;;;;;;-2.28;55.72;100504.41;6240993;22;20023;-91
2023/11/18 00:17:56;;;;;;;5.65;2.75;;;;;;;-2.58;55.84;100448.44;6216385;22;20032;-93
2023/11/18 00:21:00;;;;;;;5.22;2.97;;;;;;;-2.22;56.04;100492.88;6184636;23;20026;-91
2023/11/18 00:23:30;;;;;;;5.03;2.80;;;;;;;-2.45;56.10;100459.22;6240049;22;20107;-91
2023/11/18 00:26:22;;;;;;;7.93;2.08;;;;;;;-2.26;56.22;100497.78;6260352;22;20028;-90
2023/11/18 00:29:14;;;;;;;10.10;2.53;;;;;;;-2.71;56.36;100426.97;6233999;23;20027;-90
2023/11/18 00:43:08;;;;;;;5.03;2.45;;;;;;;-2.41;55.80;100503.31;6311804;22;20043;-89
2023/11/18 00:45:35;;;;;;;32.80;3.28;;;;;;;-2.67;56.14;100473.72;6241563;22;20032;-89
2023/11/18 00:49:05;;;;;;;12.38;2.67;;;;;;;-2.47;56.16;100508.63;6296053;22;20038;-89
2023/11/18 00:55:21;;;;;;;16.98;2.70;;;;;;;-2.55;56.86;100516.81;6239851;22;20042;-88
2023/11/18 00:58:40;;;;;;;6.00;2.90;;;;;;;-2.63;56.95;100513.28;6239350;22;20000;-90
2023/11/18 01:05:07;;;;;;;7.07;2.92;;;;;;;-2.61;57.01;100519.28;6319739;22;20031;-91
2023/11/18 01:08:36;;;;;;;8.77;3.13;;;;;;;-2.61;57.21;100523.81;6219945;22;20024;-91
2023/11/18 01:14:49;;;;;;;4.55;2.63;;;;;;;-2.72;58.13;100535.03;6306449;22;20035;-90
2023/11/18 01:18:21;;;;;;;6.18;2.53;;;;;;;-3.43;58.03;100420.97;6225738;23;20020;-90
2023/11/18 01:23:44;;;;;;;12.07;2.80;;;;;;;-3.31;58.30;100442.66;6319488;22;20097;-91
2023/11/18 01:26:27;;;;;;;8.80;3.05;;;;;;;-3.55;58.61;100426.00;6249617;22;20023;-92
2023/11/18 01:28:54;;;;;;;7.55;3.38;;;;;;;-3.42;58.53;100424.47;6265839;22;20016;-93
2023/11/18 01:31:32;;;;;;;4.53;2.83;;;;;;;-3.21;58.61;100469.88;6265851;22;20024;-92
2023/11/18 01:33:59;;;;;;;13.63;3.65;;;;;;;-3.03;58.98;100508.69;6247876;22;20023;-91
2023/11/18 01:36:28;;;;;;;9.98;3.70;;;;;;;-3.70;59.32;100416.44;6298856;22;20015;-92
2023/11/18 01:38:58;;;;;;;10.30;3.08;;;;;;;-3.26;59.62;100496.38;6275664;22;20015;-91
2023/11/18 01:41:29;;;;;;;6.30;3.33;;;;;;;-3.44;60.28;100463.94;6248409;22;20012;-91
2023/11/18 01:47:39;;;;;;;16.67;3.47;;;;;;;-3.47;61.05;100480.38;6233049;23;20103;-90
2023/11/18 01:50:12;;;;;;;7.88;3.22;;;;;;;-3.74;61.10;100432.03;6263846;23;20070;-89
2023/11/18 01:53:13;;;;;;;7.24;4.12;;;;;;;-3.75;61.14;100441.06;6049916;22;15087047;-92
2023/11/18 01:55:45;;;;;;;5.40;3.40;;;;;;;-3.49;60.97;100466.38;6182750;23;20244;-91
2023/11/18 01:59:18;;;;;;;10.45;3.58;;;;;;;-3.09;60.89;100534.34;6181178;23;20031;-92
2023/11/18 02:01:52;;;;;;;8.88;3.50;;;;;;;-3.29;61.07;100495.94;6184491;23;20062;-91
2023/11/18 02:04:33;;;;;;;17.27;4.00;;;;;;;-3.32;61.13;100486.44;6186176;23;20007;-92
2023/11/18 02:07:14;;;;;;;14.95;4.03;;;;;;;-2.95;61.22;100544.13;6188254;23;20031;-90
2023/11/18 02:15:57;;;;;;;13.50;3.47;;;;;;;-3.49;61.12;100453.00;6325815;22;20265;-92
2023/11/18 02:18:39;;;;;;;8.27;4.15;;;;;;;-3.28;61.48;100498.41;6275017;22;20030;-91
2023/11/18 02:22:00;;;;;;;7.85;3.78;;;;;;;-3.15;61.62;100535.94;6311184;22;20030;-91
2023/11/18 02:28:24;;;;;;;10.25;4.18;;;;;;;-3.21;62.19;100535.91;6304639;22;20027;-91
2023/11/18 02:31:37;;;;;;;8.05;4.13;;;;;;;-3.23;62.57;100543.31;6223899;23;20074;-92
2023/11/18 02:34:47;;;;;;;10.23;4.53;;;;;;;-3.38;62.54;100505.94;6260317;23;20075;-90
2023/11/18 02:37:24;;;;;;;14.02;5.80;;;;;;;-3.21;62.67;100542.09;6221679;23;20083;-91
2023/11/18 02:39:57;;;;;;;12.00;4.53;;;;;;;-3.58;62.92;100497.72;6213144;23;20008;-91
2023/11/18 02:42:28;;;;;;;8.38;4.25;;;;;;;-3.60;63.34;100505.13;6195682;22;20024;-91
2023/11/18 02:45:03;;;;;;;14.45;4.93;;;;;;;-3.31;63.17;100545.09;6215216;23;20024;-91
2023/11/18 02:47:57;;;;;;;8.80;4.93;;;;;;;-3.24;63.04;100544.34;6177934;23;20024;-91
2023/11/18 02:50:24;;;;;;;10.77;4.30;;;;;;;-3.51;63.02;100513.81;6180042;23;20020;-89
2023/11/18 02:52:51;;;;;;;8.00;3.85;;;;;;;-3.69;62.84;100483.03;6183791;23;20020;-93
2023/11/18 02:55:21;;;;;;;8.23;4.13;;;;;;;-3.76;62.94;100482.16;6159566;23;20032;-89
2023/11/18 02:57:47;;;;;;;6.20;3.92;;;;;;;-3.87;62.93;100456.78;6205486;23;20004;-90
2023/11/18 03:03:06;;;;;;;11.30;3.13;;;;;;;-3.71;62.76;100474.38;6193743;22;20283;-90
2023/11/18 03:05:39;;;;;;;14.77;4.63;;;;;;;-3.41;62.96;100533.03;6215187;23;20025;-92
2023/11/18 03:08:07;;;;;;;5.30;3.30;;;;;;;-4.08;62.92;100424.72;6246244;22;20306;-91
2023/11/18 03:10:34;;;;;;;6.70;3.17;;;;;;;-3.77;62.81;100477.84;6195503;22;20030;-92
2023/11/18 03:13:28;;;;;;;7.80;3.75;;;;;;;-3.76;62.99;100476.81;6249421;22;20016;-90
2023/11/18 03:15:58;;;;;;;11.18;4.32;;;;;;;-3.97;62.98;100440.25;6272210;22;20067;-90
2023/11/18 03:18:25;;;;;;;7.03;4.10;;;;;;;-3.80;62.99;100480.88;6297738;22;20072;-92
2023/11/18 03:23:46;;;;;;;10.13;4.68;;;;;;;-3.49;63.21;100517.97;6286501;22;20028;-90
2023/11/18 03:26:37;;;;;;;9.48;4.53;;;;;;;-3.28;63.08;100554.56;6244982;22;20026;-92
2023/11/18 03:29:07;;;;;;;8.07;4.40;;;;;;;-3.49;62.91;100514.47;6244187;22;20115;-90
2023/11/18 03:46:42;;;;;;;7.47;3.58;;;;;;;-3.58;63.71;100564.53;6336221;22;20062;-90
2023/11/18 04:03:03;;;;;;;10.10;3.67;;;;;;;-3.53;63.58;100567.50;6268221;22;20008;-88
2023/11/18 04:18:30;;;;;;;10.63;4.60;;;;;;;-3.86;63.94;100519.88;6282918;22;20003;-90
2023/11/18 05:31:24;;;;;;;22.90;5.60;;;;;;;-3.96;62.22;100530.03;6301418;22;20007;-91
2023/11/18 05:34:54;;;;;;;20.77;5.93;;;;;;;-3.87;61.34;100512.06;6289674;22;20003;-91
2023/11/18 05:49:31;;;;;;;15.35;6.75;;;;;;;-4.08;61.87;100497.63;6298216;22;20023;-91
2023/11/18 11:08:53;;;;;;;14.85;4.97;;;;;;;0.13;46.82;100532.63;6298807;22;20016;-94
2023/11/18 11:18:02;;;;;;;14.07;4.50;;;;;;;0.68;46.31;100592.09;6280060;22;20004;-92
2023/11/18 11:22:06;;;;;;;8.15;4.40;;;;;;;0.59;46.18;100603.31;6309349;22;20030;-93
2023/11/18 11:40:39;;;;;;;20.40;4.70;;;;;;;-0.10;47.61;100514.31;6289310;22;20038;31
2023/11/18 11:46:55;;;;;;;31.00;7.20;;;;;;;-0.09;47.63;100502.50;6323944;22;20030;-93
2023/11/18 12:22:17;;;;;;;23.30;6.00;;;;;;;-0.07;46.26;100516.53;6312672;22;19918;-92
2023/11/18 18:32:38;;;;;;;109.15;44.72;;;;;;;-2.72;57.42;100632.22;6303003;22;20003;-89
2023/11/18 18:36:14;;;;;;;113.95;44.63;;;;;;;-2.75;57.90;100616.53;6294118;22;20024;-89
2023/11/18 19:40:24;;;;;;;70.53;30.25;;;;;;;-3.56;58.65;100541.97;6303053;22;20059;-91
2023/11/18 20:22:28;;;;;;;78.68;28.30;;;;;;;-3.85;59.43;100534.03;6307940;22;20031;-87
2023/11/18 20:28:20;;;;;;;64.90;24.55;;;;;;;-3.65;59.35;100564.47;6301710;22;20012;-89
2023/11/18 20:31:08;;;;;;;80.20;24.20;;;;;;;-3.44;59.10;100610.97;6248493;22;19996;-88
2023/11/18 20:33:54;;;;;;;59.33;22.23;;;;;;;-3.84;59.28;100575.75;6248535;22;20027;-91
2023/11/18 20:36:35;;;;;;;67.72;21.77;;;;;;;-4.04;59.63;100522.13;6245393;22;20007;-88
2023/11/18 20:52:52;;;;;;;49.00;17.17;;;;;;;-3.37;59.49;100655.47;6281647;22;20015;-89
2023/11/18 21:10:51;;;;;;;44.13;16.85;;;;;;;-3.42;59.46;100655.19;6299565;22;20034;-87
2023/11/18 21:14:15;;;;;;;44.50;16.67;;;;;;;-3.45;59.62;100652.06;6249393;22;20015;-87
2023/11/18 21:24:53;;;;;;;46.67;17.27;;;;;;;-4.01;59.36;100567.16;6182476;23;20005;-92
2023/11/18 21:34:24;;;;;;;52.55;17.83;;;;;;;-3.51;59.74;100626.91;6320780;22;20106;-88
2023/11/18 21:41:11;;;;;;;;;;;;;;;-3.49;58.79;100638.25;6181072;23;19997;-90
2023/11/18 22:03:37;;;;;;;35.22;13.68;;;;;;;-3.54;58.98;100613.97;6273380;22;20087;-90
2023/11/18 22:07:20;;;;;;;32.03;13.88;;;;;;;-4.09;58.98;100552.06;6287971;22;20023;-90
2023/11/18 22:10:11;;;;;;;28.65;13.65;;;;;;;-3.92;59.13;100578.56;6220427;22;20023;-92
2023/11/18 22:13:06;;;;;;;34.90;13.93;;;;;;;-3.68;59.20;100612.13;6306424;22;20006;-90
2023/11/18 22:15:37;;;;;;;29.95;12.75;;;;;;;-4.23;58.76;100504.88;6278685;22;20064;-89
2023/11/18 22:18:37;;;;;;;36.70;11.93;;;;;;;-3.75;58.92;100585.34;6274264;22;20038;-90
2023/11/18 22:25:31;;;;;;;48.83;13.90;;;;;;;-3.98;57.85;100565.94;6252653;23;20016;-89
2023/11/18 22:38:42;;;;;;;43.20;16.88;;;;;;;-4.36;58.75;100544.75;6140084;23;20166;-90
2023/11/18 22:41:40;;;;;;;48.70;20.05;;;;;;;-4.57;58.92;100506.28;6235252;22;20023;-90
2023/11/18 22:45:16;;;;;;;60.40;22.10;;;;;;;-4.01;59.22;100596.53;6217873;22;20020;-91
2023/11/18 22:47:45;;;;;;;58.92;22.73;;;;;;;-4.66;58.84;100488.72;6300819;22;19995;-92
2023/11/18 22:50:14;;;;;;;80.03;27.10;;;;;;;-4.29;58.71;100559.81;6245267;23;20031;-89
2023/11/18 22:53:42;;;;;;;75.63;24.92;;;;;;;-3.99;58.86;100594.50;6217894;22;20513;-89
2023/11/18 22:56:47;;;;;;;74.45;24.70;;;;;;;-4.03;58.83;100591.38;6269580;22;19996;-89
2023/11/18 22:59:14;;;;;;;71.60;25.88;;;;;;;-4.18;59.06;100568.38;6265481;23;20000;-88
2023/11/18 23:01:43;;;;;;;79.40;28.38;;;;;;;-4.29;58.90;100545.66;6245785;22;20000;-89
2023/11/18 23:04:33;;;;;;;73.05;27.17;;;;;;;-4.31;58.97;100534.31;6269529;22;20028;-89
2023/11/18 23:07:10;;;;;;;43.22;17.25;;;;;;;-4.00;59.16;100592.03;6209127;22;20047;-92
2023/11/18 23:09:41;;;;;;;39.30;15.10;;;;;;;-4.61;59.15;100494.31;6296670;22;20075;-89
2023/11/18 23:12:07;;;;;;;39.45;16.58;;;;;;;-4.45;59.28;100505.81;6238459;23;20016;-88
2023/11/18 23:14:38;;;;;;;45.00;15.07;;;;;;;-4.40;59.22;100517.59;6240556;22;20027;-88
2023/11/18 23:17:05;;;;;;;48.25;15.30;;;;;;;-4.20;59.44;100555.22;6239966;22;20004;-90
2023/11/18 23:20:04;;;;;;;44.83;16.35;;;;;;;-4.06;59.60;100577.56;6271966;22;20156;-89
2023/11/18 23:22:56;;;;;;;33.95;14.57;;;;;;;-4.06;59.67;100583.75;6215239;22;20001;-89
2023/11/18 23:25:48;;;;;;;29.17;14.35;;;;;;;-3.98;59.57;100573.97;6195205;22;19996;-88
2023/11/18 23:28:33;;;;;;;35.72;13.35;;;;;;;-3.97;59.61;100559.59;6247269;23;20027;-88
2023/11/18 23:31:04;;;;;;;44.28;14.55;;;;;;;-3.90;59.63;100568.53;6243974;22;20020;-88
2023/11/18 23:33:47;;;;;;;41.63;13.35;;;;;;;-4.15;59.69;100535.97;6231292;22;20024;-92
2023/11/18 23:36:38;;;;;;;36.38;13.20;;;;;;;-4.42;59.34;100494.75;6249907;22;20108;-89
2023/11/18 23:39:28;;;;;;;28.67;13.00;;;;;;;-4.46;59.40;100482.81;6300471;22;20023;-88
2023/11/18 23:41:55;;;;;;;37.47;14.02;;;;;;;-4.24;59.70;100524.53;6271396;22;20004;-88
2023/11/18 23:44:56;;;;;;;37.50;14.07;;;;;;;-4.13;60.13;100540.09;6249192;22;20032;-90
2023/11/18 23:47:22;;;;;;;29.98;12.88;;;;;;;-4.27;60.53;100527.63;6173132;23;20017;-89
2023/11/18 23:49:51;;;;;;;40.63;12.98;;;;;;;-4.48;60.21;100493.66;6132260;23;20009;-88
2023/11/18 23:52:22;;;;;;;32.67;13.13;;;;;;;-4.68;59.93;100469.38;6155744;23;20009;-91
2023/11/18 23:54:50;;;;;;;39.15;14.38;;;;;;;-4.38;58.97;100518.22;6153987;23;20037;-89
2023/11/18 23:57:16;;;;;;;38.42;14.35;;;;;;;-4.06;59.13;100559.69;6131150;23;20001;-87
